sensor_id;sensor_type;location;lat;lon;timestamp;P1;durP1;ratioP1;P2;durP2;ratioP2
70165;SDS011;57541;47.408;18.822;2022-07-29T00:00:16;6.85;;;3.40;;
70165;SDS011;57541;47.408;18.822;2022-07-29T00:00:48;7.80;;;4.00;;
70165;SDS011;57541;47.408;18.822;2022-07-29T00:01:19;7.28;;;3.40;;
70165;SDS011;57541;47.408;18.822;2022-07-29T00:01:51;7.18;;;4.00;;
70165;SDS011;57541;47.408;18.822;2022-07-29T00:02:23;6.80;;;3.10;;
70165;SDS011;57541;47.408;18.822;2022-07-29T00:02:55;6.77;;;3.80;;
70165;SDS011;57541;47.408;18.822;2022-07-29T00:03:26;6.70;;;3.50;;
70165;SDS011;57541;47.408;18.822;2022-07-29T00:03:58;6.13;;;3.75;;
70165;SDS011;57541;47.408;18.822;2022-07-29T00:04:30;9.45;;;4.00;;
70165;SDS011;57541;47.408;18.822;2022-07-29T00:05:02;7.10;;;4.00;;
70165;SDS011;57541;47.408;18.822;2022-07-29T00:05:34;7.63;;;4.03;;
70165;SDS011;57541;47.408;18.822;2022-07-29T00:06:06;6.30;;;3.85;;
70165;SDS011;57541;47.408;18.822;2022-07-29T00:06:39;6.82;;;3.90;;
70165;SDS011;57541;47.408;18.822;2022-07-29T00:07:11;7.22;;;3.78;;
70165;SDS011;57541;47.408;18.822;2022-07-29T00:07:44;8.05;;;4.15;;
70165;SDS011;57541;47.408;18.822;2022-07-29T00:08:15;6.17;;;3.97;;
70165;SDS011;57541;47.408;18.822;2022-07-29T00:08:47;6.65;;;3.70;;
70165;SDS011;57541;47.408;18.822;2022-07-29T00:09:18;8.13;;;3.42;;
70165;SDS011;57541;47.408;18.822;2022-07-29T00:09:50;7.85;;;3.90;;
70165;SDS011;57541;47.408;18.822;2022-07-29T00:10:22;7.70;;;3.90;;
70165;SDS011;57541;47.408;18.822;2022-07-29T00:10:54;8.00;;;3.95;;
70165;SDS011;57541;47.408;18.822;2022-07-29T00:11:26;9.43;;;3.72;;
70165;SDS011;57541;47.408;18.822;2022-07-29T00:11:58;6.20;;;3.65;;
70165;SDS011;57541;47.408;18.822;2022-07-29T00:12:31;7.55;;;3.70;;
70165;SDS011;57541;47.408;18.822;2022-07-29T00:13:02;6.30;;;3.45;;
70165;SDS011;57541;47.408;18.822;2022-07-29T00:13:34;7.40;;;3.73;;
70165;SDS011;57541;47.408;18.822;2022-07-29T00:14:06;6.28;;;3.65;;
70165;SDS011;57541;47.408;18.822;2022-07-29T00:14:37;8.30;;;4.20;;
70165;SDS011;57541;47.408;18.822;2022-07-29T00:15:09;9.93;;;3.60;;
70165;SDS011;57541;47.408;18.822;2022-07-29T00:15:41;7.85;;;3.80;;
70165;SDS011;57541;47.408;18.822;2022-07-29T00:16:12;7.07;;;4.03;;
70165;SDS011;57541;47.408;18.822;2022-07-29T00:16:44;7.05;;;3.67;;
70165;SDS011;57541;47.408;18.822;2022-07-29T00:17:16;7.18;;;3.65;;
70165;SDS011;57541;47.408;18.822;2022-07-29T00:17:49;7.10;;;3.83;;
70165;SDS011;57541;47.408;18.822;2022-07-29T00:18:21;7.30;;;3.72;;
70165;SDS011;57541;47.408;18.822;2022-07-29T00:18:52;7.63;;;3.50;;
70165;SDS011;57541;47.408;18.822;2022-07-29T00:19:24;6.78;;;4.00;;
70165;SDS011;57541;47.408;18.822;2022-07-29T00:19:55;6.03;;;3.50;;
70165;SDS011;57541;47.408;18.822;2022-07-29T00:20:27;6.82;;;3.97;;
70165;SDS011;57541;47.408;18.822;2022-07-29T00:20:59;8.40;;;3.97;;
70165;SDS011;57541;47.408;18.822;2022-07-29T00:21:30;7.22;;;3.75;;
70165;SDS011;57541;47.408;18.822;2022-07-29T00:22:02;8.45;;;4.00;;
70165;SDS011;57541;47.408;18.822;2022-07-29T00:22:36;6.47;;;3.65;;
70165;SDS011;57541;47.408;18.822;2022-07-29T00:23:09;6.50;;;3.58;;
70165;SDS011;57541;47.408;18.822;2022-07-29T00:23:43;7.57;;;3.85;;
70165;SDS011;57541;47.408;18.822;2022-07-29T00:24:15;7.43;;;3.60;;
70165;SDS011;57541;47.408;18.822;2022-07-29T00:24:48;6.63;;;3.70;;
70165;SDS011;57541;47.408;18.822;2022-07-29T00:25:20;5.80;;;3.70;;
70165;SDS011;57541;47.408;18.822;2022-07-29T00:25:52;7.00;;;4.05;;
70165;SDS011;57541;47.408;18.822;2022-07-29T00:26:23;10.80;;;4.20;;
70165;SDS011;57541;47.408;18.822;2022-07-29T00:26:55;7.18;;;3.95;;
70165;SDS011;57541;47.408;18.822;2022-07-29T00:27:26;7.20;;;4.03;;
70165;SDS011;57541;47.408;18.822;2022-07-29T00:27:58;9.48;;;3.97;;
70165;SDS011;57541;47.408;18.822;2022-07-29T00:28:29;7.20;;;4.03;;
70165;SDS011;57541;47.408;18.822;2022-07-29T00:29:03;6.70;;;3.78;;
70165;SDS011;57541;47.408;18.822;2022-07-29T00:29:55;6.17;;;4.10;;
70165;SDS011;57541;47.408;18.822;2022-07-29T00:30:27;6.78;;;4.30;;
70165;SDS011;57541;47.408;18.822;2022-07-29T00:30:59;7.63;;;4.35;;
70165;SDS011;57541;47.408;18.822;2022-07-29T00:31:30;8.50;;;4.20;;
70165;SDS011;57541;47.408;18.822;2022-07-29T00:32:02;7.90;;;4.20;;
70165;SDS011;57541;47.408;18.822;2022-07-29T00:32:34;8.18;;;3.75;;
70165;SDS011;57541;47.408;18.822;2022-07-29T00:33:06;7.68;;;4.13;;
70165;SDS011;57541;47.408;18.822;2022-07-29T00:33:39;7.38;;;3.80;;
70165;SDS011;57541;47.408;18.822;2022-07-29T00:34:11;8.05;;;4.05;;
70165;SDS011;57541;47.408;18.822;2022-07-29T00:35:01;7.55;;;3.90;;
70165;SDS011;57541;47.408;18.822;2022-07-29T00:35:51;7.20;;;3.60;;
70165;SDS011;57541;47.408;18.822;2022-07-29T00:36:25;6.47;;;3.50;;
70165;SDS011;57541;47.408;18.822;2022-07-29T00:36:56;6.85;;;3.67;;
70165;SDS011;57541;47.408;18.822;2022-07-29T00:37:28;8.95;;;3.70;;
70165;SDS011;57541;47.408;18.822;2022-07-29T00:38:00;7.35;;;3.63;;
70165;SDS011;57541;47.408;18.822;2022-07-29T00:38:32;7.47;;;3.95;;
70165;SDS011;57541;47.408;18.822;2022-07-29T00:39:03;7.25;;;4.13;;
70165;SDS011;57541;47.408;18.822;2022-07-29T00:39:35;7.20;;;4.03;;
70165;SDS011;57541;47.408;18.822;2022-07-29T00:40:07;6.43;;;4.05;;
70165;SDS011;57541;47.408;18.822;2022-07-29T00:40:39;7.00;;;3.92;;
70165;SDS011;57541;47.408;18.822;2022-07-29T00:41:14;7.13;;;4.17;;
70165;SDS011;57541;47.408;18.822;2022-07-29T00:41:46;7.18;;;4.10;;
70165;SDS011;57541;47.408;18.822;2022-07-29T00:42:18;6.82;;;3.83;;
70165;SDS011;57541;47.408;18.822;2022-07-29T00:42:50;8.20;;;3.85;;
70165;SDS011;57541;47.408;18.822;2022-07-29T00:43:23;7.60;;;3.90;;
70165;SDS011;57541;47.408;18.822;2022-07-29T00:43:55;7.28;;;3.78;;
70165;SDS011;57541;47.408;18.822;2022-07-29T00:44:26;7.28;;;3.95;;
70165;SDS011;57541;47.408;18.822;2022-07-29T00:44:58;6.85;;;3.95;;
70165;SDS011;57541;47.408;18.822;2022-07-29T00:45:30;7.35;;;4.20;;
70165;SDS011;57541;47.408;18.822;2022-07-29T00:46:01;7.22;;;4.07;;
70165;SDS011;57541;47.408;18.822;2022-07-29T00:46:33;7.43;;;4.40;;
70165;SDS011;57541;47.408;18.822;2022-07-29T00:47:05;7.15;;;3.97;;
70165;SDS011;57541;47.408;18.822;2022-07-29T00:47:38;7.00;;;4.15;;
70165;SDS011;57541;47.408;18.822;2022-07-29T00:48:09;10.32;;;4.57;;
70165;SDS011;57541;47.408;18.822;2022-07-29T00:48:41;6.95;;;4.18;;
70165;SDS011;57541;47.408;18.822;2022-07-29T00:49:13;6.90;;;4.25;;
70165;SDS011;57541;47.408;18.822;2022-07-29T00:49:45;7.28;;;4.50;;
70165;SDS011;57541;47.408;18.822;2022-07-29T00:50:16;6.75;;;3.58;;
70165;SDS011;57541;47.408;18.822;2022-07-29T00:50:49;7.80;;;4.15;;
70165;SDS011;57541;47.408;18.822;2022-07-29T00:51:20;7.05;;;4.50;;
70165;SDS011;57541;47.408;18.822;2022-07-29T00:51:52;8.40;;;4.30;;
70165;SDS011;57541;47.408;18.822;2022-07-29T00:52:24;9.30;;;4.30;;
70165;SDS011;57541;47.408;18.822;2022-07-29T00:52:56;8.45;;;4.40;;
70165;SDS011;57541;47.408;18.822;2022-07-29T00:53:28;6.97;;;4.57;;
70165;SDS011;57541;47.408;18.822;2022-07-29T00:54:01;8.02;;;3.88;;
70165;SDS011;57541;47.408;18.822;2022-07-29T00:54:34;8.27;;;4.32;;
70165;SDS011;57541;47.408;18.822;2022-07-29T00:55:15;7.43;;;4.10;;
70165;SDS011;57541;47.408;18.822;2022-07-29T00:55:47;7.07;;;4.57;;
70165;SDS011;57541;47.408;18.822;2022-07-29T00:56:18;7.20;;;4.47;;
70165;SDS011;57541;47.408;18.822;2022-07-29T00:56:50;7.85;;;4.00;;
70165;SDS011;57541;47.408;18.822;2022-07-29T00:57:22;7.93;;;4.00;;
70165;SDS011;57541;47.408;18.822;2022-07-29T00:57:54;7.47;;;4.35;;
70165;SDS011;57541;47.408;18.822;2022-07-29T00:58:26;7.00;;;4.38;;
70165;SDS011;57541;47.408;18.822;2022-07-29T00:58:58;6.97;;;4.30;;
70165;SDS011;57541;47.408;18.822;2022-07-29T00:59:30;7.28;;;4.03;;
70165;SDS011;57541;47.408;18.822;2022-07-29T01:00:06;7.07;;;4.32;;
70165;SDS011;57541;47.408;18.822;2022-07-29T01:00:40;8.18;;;4.45;;
70165;SDS011;57541;47.408;18.822;2022-07-29T01:01:12;7.10;;;3.83;;
70165;SDS011;57541;47.408;18.822;2022-07-29T01:01:44;7.53;;;4.20;;
70165;SDS011;57541;47.408;18.822;2022-07-29T01:02:15;7.13;;;4.00;;
70165;SDS011;57541;47.408;18.822;2022-07-29T01:02:47;6.80;;;4.33;;
70165;SDS011;57541;47.408;18.822;2022-07-29T01:03:19;7.45;;;4.35;;
70165;SDS011;57541;47.408;18.822;2022-07-29T01:03:51;6.93;;;4.32;;
70165;SDS011;57541;47.408;18.822;2022-07-29T01:04:23;6.60;;;4.05;;
70165;SDS011;57541;47.408;18.822;2022-07-29T01:04:55;7.13;;;4.40;;
70165;SDS011;57541;47.408;18.822;2022-07-29T01:05:28;7.40;;;4.18;;
70165;SDS011;57541;47.408;18.822;2022-07-29T01:06:21;6.82;;;4.32;;
70165;SDS011;57541;47.408;18.822;2022-07-29T01:06:54;6.75;;;4.40;;
70165;SDS011;57541;47.408;18.822;2022-07-29T01:07:25;8.05;;;4.45;;
70165;SDS011;57541;47.408;18.822;2022-07-29T01:07:58;7.25;;;4.13;;
70165;SDS011;57541;47.408;18.822;2022-07-29T01:08:30;7.37;;;4.20;;
70165;SDS011;57541;47.408;18.822;2022-07-29T01:09:03;8.13;;;4.60;;
70165;SDS011;57541;47.408;18.822;2022-07-29T01:09:37;7.20;;;3.97;;
70165;SDS011;57541;47.408;18.822;2022-07-29T01:10:17;7.40;;;4.55;;
70165;SDS011;57541;47.408;18.822;2022-07-29T01:10:50;7.75;;;4.18;;
70165;SDS011;57541;47.408;18.822;2022-07-29T01:11:22;8.07;;;4.47;;
70165;SDS011;57541;47.408;18.822;2022-07-29T01:11:54;8.75;;;4.47;;
70165;SDS011;57541;47.408;18.822;2022-07-29T01:12:26;6.72;;;3.95;;
70165;SDS011;57541;47.408;18.822;2022-07-29T01:13:00;7.25;;;4.40;;
70165;SDS011;57541;47.408;18.822;2022-07-29T01:13:32;7.35;;;4.05;;
70165;SDS011;57541;47.408;18.822;2022-07-29T01:14:04;6.70;;;4.40;;
70165;SDS011;57541;47.408;18.822;2022-07-29T01:14:39;7.55;;;4.40;;
70165;SDS011;57541;47.408;18.822;2022-07-29T01:15:11;6.63;;;4.15;;
70165;SDS011;57541;47.408;18.822;2022-07-29T01:15:45;7.10;;;4.40;;
70165;SDS011;57541;47.408;18.822;2022-07-29T01:17:05;10.07;;;4.43;;
70165;SDS011;57541;47.408;18.822;2022-07-29T01:17:24;7.47;;;4.70;;
70165;SDS011;57541;47.408;18.822;2022-07-29T01:19:18;7.07;;;4.55;;
70165;SDS011;57541;47.408;18.822;2022-07-29T01:24:33;7.20;;;4.32;;
70165;SDS011;57541;47.408;18.822;2022-07-29T01:27:43;6.70;;;4.07;;
70165;SDS011;57541;47.408;18.822;2022-07-29T01:29:36;6.93;;;4.50;;
70165;SDS011;57541;47.408;18.822;2022-07-29T01:30:14;6.97;;;3.72;;
70165;SDS011;57541;47.408;18.822;2022-07-29T01:30:46;6.70;;;3.93;;
70165;SDS011;57541;47.408;18.822;2022-07-29T01:31:39;7.13;;;4.05;;
70165;SDS011;57541;47.408;18.822;2022-07-29T01:32:31;6.68;;;4.30;;
70165;SDS011;57541;47.408;18.822;2022-07-29T01:33:07;7.13;;;4.20;;
70165;SDS011;57541;47.408;18.822;2022-07-29T01:33:41;6.18;;;4.20;;
70165;SDS011;57541;47.408;18.822;2022-07-29T01:35:03;7.07;;;4.07;;
70165;SDS011;57541;47.408;18.822;2022-07-29T01:35:21;7.72;;;4.18;;
70165;SDS011;57541;47.408;18.822;2022-07-29T01:35:56;7.72;;;4.65;;
70165;SDS011;57541;47.408;18.822;2022-07-29T01:36:47;7.13;;;4.40;;
70165;SDS011;57541;47.408;18.822;2022-07-29T01:37:24;7.45;;;4.05;;
70165;SDS011;57541;47.408;18.822;2022-07-29T01:39:08;6.20;;;4.10;;
70165;SDS011;57541;47.408;18.822;2022-07-29T01:39:43;7.20;;;4.00;;
70165;SDS011;57541;47.408;18.822;2022-07-29T01:41:06;6.28;;;3.75;;
70165;SDS011;57541;47.408;18.822;2022-07-29T01:41:57;6.85;;;3.80;;
70165;SDS011;57541;47.408;18.822;2022-07-29T01:42:36;6.88;;;3.78;;
70165;SDS011;57541;47.408;18.822;2022-07-29T01:43:16;6.80;;;4.47;;
70165;SDS011;57541;47.408;18.822;2022-07-29T01:43:55;6.78;;;4.32;;
70165;SDS011;57541;47.408;18.822;2022-07-29T01:44:34;8.13;;;4.43;;
70165;SDS011;57541;47.408;18.822;2022-07-29T01:45:19;7.53;;;4.07;;
70165;SDS011;57541;47.408;18.822;2022-07-29T01:45:58;8.40;;;4.20;;
70165;SDS011;57541;47.408;18.822;2022-07-29T01:46:34;7.85;;;4.15;;
70165;SDS011;57541;47.408;18.822;2022-07-29T01:47:14;7.10;;;4.10;;
70165;SDS011;57541;47.408;18.822;2022-07-29T01:48:00;6.32;;;4.20;;
70165;SDS011;57541;47.408;18.822;2022-07-29T01:48:45;7.03;;;3.78;;
70165;SDS011;57541;47.408;18.822;2022-07-29T01:49:21;8.13;;;4.47;;
70165;SDS011;57541;47.408;18.822;2022-07-29T01:50:03;6.75;;;4.18;;
70165;SDS011;57541;47.408;18.822;2022-07-29T01:53:06;8.80;;;4.30;;
70165;SDS011;57541;47.408;18.822;2022-07-29T01:53:37;7.38;;;4.03;;
70165;SDS011;57541;47.408;18.822;2022-07-29T01:54:30;10.55;;;4.07;;
70165;SDS011;57541;47.408;18.822;2022-07-29T01:55:11;6.63;;;4.15;;
70165;SDS011;57541;47.408;18.822;2022-07-29T01:55:45;6.68;;;4.30;;
70165;SDS011;57541;47.408;18.822;2022-07-29T01:56:18;7.35;;;3.95;;
70165;SDS011;57541;47.408;18.822;2022-07-29T01:56:51;6.72;;;4.13;;
70165;SDS011;57541;47.408;18.822;2022-07-29T01:57:26;8.38;;;4.40;;
70165;SDS011;57541;47.408;18.822;2022-07-29T01:57:59;8.63;;;4.30;;
70165;SDS011;57541;47.408;18.822;2022-07-29T01:58:34;7.55;;;4.40;;
70165;SDS011;57541;47.408;18.822;2022-07-29T01:59:08;8.53;;;4.10;;
70165;SDS011;57541;47.408;18.822;2022-07-29T01:59:40;6.53;;;4.03;;
70165;SDS011;57541;47.408;18.822;2022-07-29T02:00:15;8.70;;;3.88;;
70165;SDS011;57541;47.408;18.822;2022-07-29T02:01:04;7.47;;;4.00;;
70165;SDS011;57541;47.408;18.822;2022-07-29T02:01:37;6.75;;;4.30;;
70165;SDS011;57541;47.408;18.822;2022-07-29T02:02:13;6.95;;;4.45;;
70165;SDS011;57541;47.408;18.822;2022-07-29T02:02:47;7.45;;;4.40;;
70165;SDS011;57541;47.408;18.822;2022-07-29T02:03:21;6.22;;;4.15;;
70165;SDS011;57541;47.408;18.822;2022-07-29T02:03:54;7.22;;;4.82;;
70165;SDS011;57541;47.408;18.822;2022-07-29T02:04:27;9.02;;;4.55;;
70165;SDS011;57541;47.408;18.822;2022-07-29T02:05:01;7.10;;;4.27;;
70165;SDS011;57541;47.408;18.822;2022-07-29T02:05:35;7.32;;;4.30;;
70165;SDS011;57541;47.408;18.822;2022-07-29T02:06:10;7.75;;;3.88;;
70165;SDS011;57541;47.408;18.822;2022-07-29T02:06:43;6.57;;;4.35;;
70165;SDS011;57541;47.408;18.822;2022-07-29T02:07:18;8.27;;;4.50;;
70165;SDS011;57541;47.408;18.822;2022-07-29T02:07:52;7.75;;;4.03;;
70165;SDS011;57541;47.408;18.822;2022-07-29T02:08:26;7.35;;;4.50;;
70165;SDS011;57541;47.408;18.822;2022-07-29T02:08:59;7.45;;;4.20;;
70165;SDS011;57541;47.408;18.822;2022-07-29T02:09:33;9.07;;;4.30;;
70165;SDS011;57541;47.408;18.822;2022-07-29T02:10:06;6.57;;;4.40;;
70165;SDS011;57541;47.408;18.822;2022-07-29T02:10:40;7.37;;;4.30;;
70165;SDS011;57541;47.408;18.822;2022-07-29T02:11:13;7.28;;;4.35;;
70165;SDS011;57541;47.408;18.822;2022-07-29T02:11:47;7.22;;;4.18;;
70165;SDS011;57541;47.408;18.822;2022-07-29T02:12:22;9.27;;;4.63;;
70165;SDS011;57541;47.408;18.822;2022-07-29T02:12:57;6.95;;;4.43;;
70165;SDS011;57541;47.408;18.822;2022-07-29T02:13:30;7.68;;;4.15;;
70165;SDS011;57541;47.408;18.822;2022-07-29T02:14:03;7.05;;;4.57;;
70165;SDS011;57541;47.408;18.822;2022-07-29T02:14:40;7.75;;;4.85;;
70165;SDS011;57541;47.408;18.822;2022-07-29T02:15:16;7.60;;;4.72;;
70165;SDS011;57541;47.408;18.822;2022-07-29T02:15:49;8.05;;;4.20;;
70165;SDS011;57541;47.408;18.822;2022-07-29T02:16:23;6.10;;;4.10;;
70165;SDS011;57541;47.408;18.822;2022-07-29T02:16:58;8.43;;;4.93;;
70165;SDS011;57541;47.408;18.822;2022-07-29T02:17:42;7.25;;;4.65;;
70165;SDS011;57541;47.408;18.822;2022-07-29T02:18:17;6.55;;;4.13;;
70165;SDS011;57541;47.408;18.822;2022-07-29T02:18:51;7.22;;;4.43;;
70165;SDS011;57541;47.408;18.822;2022-07-29T02:19:25;9.57;;;5.03;;
70165;SDS011;57541;47.408;18.822;2022-07-29T02:19:59;7.30;;;4.60;;
70165;SDS011;57541;47.408;18.822;2022-07-29T02:20:34;7.32;;;4.68;;
70165;SDS011;57541;47.408;18.822;2022-07-29T02:21:09;6.50;;;4.15;;
70165;SDS011;57541;47.408;18.822;2022-07-29T02:21:46;8.50;;;4.97;;
70165;SDS011;57541;47.408;18.822;2022-07-29T02:22:18;7.10;;;4.67;;
70165;SDS011;57541;47.408;18.822;2022-07-29T02:22:51;6.85;;;4.60;;
70165;SDS011;57541;47.408;18.822;2022-07-29T02:23:24;7.68;;;4.47;;
70165;SDS011;57541;47.408;18.822;2022-07-29T02:23:57;6.97;;;4.43;;
70165;SDS011;57541;47.408;18.822;2022-07-29T02:24:32;9.82;;;4.95;;
70165;SDS011;57541;47.408;18.822;2022-07-29T02:25:07;7.13;;;4.13;;
70165;SDS011;57541;47.408;18.822;2022-07-29T02:25:44;9.48;;;4.50;;
70165;SDS011;57541;47.408;18.822;2022-07-29T02:26:20;6.85;;;4.43;;
70165;SDS011;57541;47.408;18.822;2022-07-29T02:26:53;8.10;;;4.90;;
70165;SDS011;57541;47.408;18.822;2022-07-29T02:27:28;7.45;;;4.60;;
70165;SDS011;57541;47.408;18.822;2022-07-29T02:28:00;7.27;;;4.13;;
70165;SDS011;57541;47.408;18.822;2022-07-29T02:28:32;7.38;;;4.07;;
70165;SDS011;57541;47.408;18.822;2022-07-29T02:29:05;6.82;;;4.70;;
70165;SDS011;57541;47.408;18.822;2022-07-29T02:29:39;8.25;;;4.75;;
70165;SDS011;57541;47.408;18.822;2022-07-29T02:30:12;8.60;;;5.47;;
70165;SDS011;57541;47.408;18.822;2022-07-29T02:30:44;8.27;;;5.20;;
70165;SDS011;57541;47.408;18.822;2022-07-29T02:31:19;7.90;;;4.85;;
70165;SDS011;57541;47.408;18.822;2022-07-29T02:31:54;7.45;;;5.10;;
70165;SDS011;57541;47.408;18.822;2022-07-29T02:32:28;8.55;;;5.10;;
70165;SDS011;57541;47.408;18.822;2022-07-29T02:33:01;6.90;;;4.40;;
70165;SDS011;57541;47.408;18.822;2022-07-29T02:33:34;6.93;;;4.80;;
70165;SDS011;57541;47.408;18.822;2022-07-29T02:34:08;8.27;;;4.72;;
70165;SDS011;57541;47.408;18.822;2022-07-29T02:34:40;8.38;;;4.72;;
70165;SDS011;57541;47.408;18.822;2022-07-29T02:35:14;10.65;;;5.40;;
70165;SDS011;57541;47.408;18.822;2022-07-29T02:35:47;6.88;;;4.60;;
70165;SDS011;57541;47.408;18.822;2022-07-29T02:36:21;9.98;;;5.00;;
70165;SDS011;57541;47.408;18.822;2022-07-29T02:36:54;8.07;;;4.72;;
70165;SDS011;57541;47.408;18.822;2022-07-29T02:37:27;7.78;;;4.68;;
70165;SDS011;57541;47.408;18.822;2022-07-29T02:38:00;7.38;;;4.50;;
70165;SDS011;57541;47.408;18.822;2022-07-29T02:38:52;9.07;;;4.85;;
70165;SDS011;57541;47.408;18.822;2022-07-29T02:39:28;9.70;;;5.10;;
70165;SDS011;57541;47.408;18.822;2022-07-29T02:40:01;8.38;;;4.63;;
70165;SDS011;57541;47.408;18.822;2022-07-29T02:40:34;6.97;;;4.47;;
70165;SDS011;57541;47.408;18.822;2022-07-29T02:41:10;8.20;;;4.53;;
70165;SDS011;57541;47.408;18.822;2022-07-29T02:41:45;8.27;;;4.63;;
70165;SDS011;57541;47.408;18.822;2022-07-29T02:42:19;7.32;;;5.13;;
70165;SDS011;57541;47.408;18.822;2022-07-29T02:42:53;7.80;;;4.70;;
70165;SDS011;57541;47.408;18.822;2022-07-29T02:43:26;8.40;;;5.32;;
70165;SDS011;57541;47.408;18.822;2022-07-29T02:44:01;9.07;;;4.78;;
70165;SDS011;57541;47.408;18.822;2022-07-29T02:44:36;8.10;;;4.78;;
70165;SDS011;57541;47.408;18.822;2022-07-29T02:45:08;8.83;;;4.73;;
70165;SDS011;57541;47.408;18.822;2022-07-29T02:45:41;8.68;;;5.60;;
70165;SDS011;57541;47.408;18.822;2022-07-29T02:46:18;10.38;;;4.75;;
70165;SDS011;57541;47.408;18.822;2022-07-29T02:47:47;7.65;;;5.00;;
70165;SDS011;57541;47.408;18.822;2022-07-29T02:48:22;7.30;;;4.35;;
70165;SDS011;57541;47.408;18.822;2022-07-29T02:49:18;9.50;;;4.97;;
70165;SDS011;57541;47.408;18.822;2022-07-29T02:50:06;7.50;;;4.63;;
70165;SDS011;57541;47.408;18.822;2022-07-29T02:50:44;9.57;;;4.88;;
70165;SDS011;57541;47.408;18.822;2022-07-29T02:51:28;8.85;;;4.65;;
70165;SDS011;57541;47.408;18.822;2022-07-29T02:52:58;7.68;;;4.80;;
70165;SDS011;57541;47.408;18.822;2022-07-29T02:53:36;7.82;;;5.05;;
70165;SDS011;57541;47.408;18.822;2022-07-29T02:54:10;7.65;;;4.82;;
70165;SDS011;57541;47.408;18.822;2022-07-29T02:54:58;9.40;;;4.82;;
70165;SDS011;57541;47.408;18.822;2022-07-29T02:55:33;8.07;;;4.75;;
70165;SDS011;57541;47.408;18.822;2022-07-29T02:56:17;7.82;;;5.10;;
70165;SDS011;57541;47.408;18.822;2022-07-29T02:56:59;7.35;;;4.75;;
70165;SDS011;57541;47.408;18.822;2022-07-29T02:57:34;8.70;;;4.65;;
70165;SDS011;57541;47.408;18.822;2022-07-29T02:58:29;7.40;;;4.65;;
70165;SDS011;57541;47.408;18.822;2022-07-29T02:59:04;6.77;;;4.67;;
70165;SDS011;57541;47.408;18.822;2022-07-29T02:59:41;9.02;;;4.50;;
70165;SDS011;57541;47.408;18.822;2022-07-29T03:00:15;7.63;;;5.00;;
70165;SDS011;57541;47.408;18.822;2022-07-29T03:00:48;7.97;;;5.00;;
70165;SDS011;57541;47.408;18.822;2022-07-29T03:01:25;8.27;;;5.03;;
70165;SDS011;57541;47.408;18.822;2022-07-29T03:02:03;9.88;;;4.60;;
70165;SDS011;57541;47.408;18.822;2022-07-29T03:02:38;7.75;;;4.93;;
70165;SDS011;57541;47.408;18.822;2022-07-29T03:03:13;7.63;;;4.95;;
70165;SDS011;57541;47.408;18.822;2022-07-29T03:03:46;7.68;;;5.20;;
70165;SDS011;57541;47.408;18.822;2022-07-29T03:04:20;7.45;;;4.60;;
70165;SDS011;57541;47.408;18.822;2022-07-29T03:04:54;8.33;;;4.87;;
70165;SDS011;57541;47.408;18.822;2022-07-29T03:05:28;7.75;;;4.40;;
70165;SDS011;57541;47.408;18.822;2022-07-29T03:06:00;9.80;;;5.20;;
70165;SDS011;57541;47.408;18.822;2022-07-29T03:06:34;6.97;;;4.75;;
70165;SDS011;57541;47.408;18.822;2022-07-29T03:07:09;8.77;;;5.20;;
70165;SDS011;57541;47.408;18.822;2022-07-29T03:07:45;10.10;;;5.10;;
70165;SDS011;57541;47.408;18.822;2022-07-29T03:08:18;8.73;;;4.93;;
70165;SDS011;57541;47.408;18.822;2022-07-29T03:08:50;8.02;;;5.00;;
70165;SDS011;57541;47.408;18.822;2022-07-29T03:09:22;8.00;;;4.97;;
70165;SDS011;57541;47.408;18.822;2022-07-29T03:09:54;7.97;;;4.65;;
70165;SDS011;57541;47.408;18.822;2022-07-29T03:10:27;7.90;;;4.93;;
70165;SDS011;57541;47.408;18.822;2022-07-29T03:10:59;8.07;;;5.03;;
70165;SDS011;57541;47.408;18.822;2022-07-29T03:11:32;8.45;;;4.70;;
70165;SDS011;57541;47.408;18.822;2022-07-29T03:12:16;8.32;;;5.07;;
70165;SDS011;57541;47.408;18.822;2022-07-29T03:12:48;7.15;;;4.75;;
70165;SDS011;57541;47.408;18.822;2022-07-29T03:13:21;7.25;;;4.72;;
70165;SDS011;57541;47.408;18.822;2022-07-29T03:13:53;8.57;;;4.63;;
70165;SDS011;57541;47.408;18.822;2022-07-29T03:14:25;8.27;;;4.82;;
70165;SDS011;57541;47.408;18.822;2022-07-29T03:14:58;7.78;;;5.03;;
70165;SDS011;57541;47.408;18.822;2022-07-29T03:15:30;6.68;;;4.45;;
70165;SDS011;57541;47.408;18.822;2022-07-29T03:16:03;9.20;;;4.73;;
70165;SDS011;57541;47.408;18.822;2022-07-29T03:16:36;8.75;;;5.05;;
70165;SDS011;57541;47.408;18.822;2022-07-29T03:17:11;7.50;;;4.80;;
70165;SDS011;57541;47.408;18.822;2022-07-29T03:17:44;6.97;;;4.63;;
70165;SDS011;57541;47.408;18.822;2022-07-29T03:18:16;7.75;;;4.90;;
70165;SDS011;57541;47.408;18.822;2022-07-29T03:18:49;10.02;;;4.68;;
70165;SDS011;57541;47.408;18.822;2022-07-29T03:19:21;8.57;;;4.65;;
70165;SDS011;57541;47.408;18.822;2022-07-29T03:19:53;9.73;;;4.88;;
70165;SDS011;57541;47.408;18.822;2022-07-29T03:20:26;9.40;;;4.75;;
70165;SDS011;57541;47.408;18.822;2022-07-29T03:20:58;8.85;;;4.85;;
70165;SDS011;57541;47.408;18.822;2022-07-29T03:21:30;8.23;;;4.77;;
70165;SDS011;57541;47.408;18.822;2022-07-29T03:22:02;7.50;;;4.68;;
70165;SDS011;57541;47.408;18.822;2022-07-29T03:22:38;11.75;;;4.70;;
70165;SDS011;57541;47.408;18.822;2022-07-29T03:23:18;8.55;;;4.57;;
70165;SDS011;57541;47.408;18.822;2022-07-29T03:23:51;7.10;;;4.82;;
70165;SDS011;57541;47.408;18.822;2022-07-29T03:24:26;7.38;;;4.75;;
70165;SDS011;57541;47.408;18.822;2022-07-29T03:25:12;8.18;;;4.85;;
70165;SDS011;57541;47.408;18.822;2022-07-29T03:25:45;7.63;;;4.88;;
70165;SDS011;57541;47.408;18.822;2022-07-29T03:26:17;6.97;;;4.63;;
70165;SDS011;57541;47.408;18.822;2022-07-29T03:26:50;8.73;;;5.03;;
70165;SDS011;57541;47.408;18.822;2022-07-29T03:27:21;7.07;;;4.60;;
70165;SDS011;57541;47.408;18.822;2022-07-29T03:27:53;8.02;;;4.90;;
70165;SDS011;57541;47.408;18.822;2022-07-29T03:28:25;7.43;;;4.63;;
70165;SDS011;57541;47.408;18.822;2022-07-29T03:28:58;7.80;;;4.53;;
70165;SDS011;57541;47.408;18.822;2022-07-29T03:29:30;7.10;;;4.78;;
70165;SDS011;57541;47.408;18.822;2022-07-29T03:30:04;8.32;;;4.90;;
70165;SDS011;57541;47.408;18.822;2022-07-29T03:30:39;9.25;;;4.82;;
70165;SDS011;57541;47.408;18.822;2022-07-29T03:31:14;6.93;;;4.40;;
70165;SDS011;57541;47.408;18.822;2022-07-29T03:31:46;7.30;;;4.60;;
70165;SDS011;57541;47.408;18.822;2022-07-29T03:32:18;6.68;;;4.50;;
70165;SDS011;57541;47.408;18.822;2022-07-29T03:32:55;7.27;;;4.70;;
70165;SDS011;57541;47.408;18.822;2022-07-29T03:33:29;8.30;;;4.43;;
70165;SDS011;57541;47.408;18.822;2022-07-29T03:34:01;7.22;;;4.70;;
70165;SDS011;57541;47.408;18.822;2022-07-29T03:34:33;9.27;;;5.18;;
70165;SDS011;57541;47.408;18.822;2022-07-29T03:35:05;8.32;;;5.03;;
70165;SDS011;57541;47.408;18.822;2022-07-29T03:35:37;7.65;;;4.68;;
70165;SDS011;57541;47.408;18.822;2022-07-29T03:36:09;8.50;;;5.15;;
70165;SDS011;57541;47.408;18.822;2022-07-29T03:36:40;7.72;;;4.95;;
70165;SDS011;57541;47.408;18.822;2022-07-29T03:37:13;7.03;;;5.15;;
70165;SDS011;57541;47.408;18.822;2022-07-29T03:37:45;7.20;;;4.78;;
70165;SDS011;57541;47.408;18.822;2022-07-29T03:38:17;8.13;;;4.77;;
70165;SDS011;57541;47.408;18.822;2022-07-29T03:38:49;8.20;;;4.90;;
70165;SDS011;57541;47.408;18.822;2022-07-29T03:39:22;7.03;;;4.70;;
70165;SDS011;57541;47.408;18.822;2022-07-29T03:39:57;9.77;;;5.10;;
70165;SDS011;57541;47.408;18.822;2022-07-29T03:40:33;7.82;;;4.63;;
70165;SDS011;57541;47.408;18.822;2022-07-29T03:41:11;7.30;;;4.43;;